Time;durP1;ratioP1;P1;durP2;ratioP2;P2;SDS_P1;SDS_P2;PMS_P1;PMS_P2;Temp;Humidity;BMP_temperature;BMP_pressure;BME280_temperature;BME280_humidity;BME280_pressure;Samples;Min_cycle;Max_cycle;Signal;HPM_P1;HPM_P2
2021/07/27 00:00:51;;;;;;;45.03;37.00;;;;;;;;;;5055568;28;20045;-67
2021/07/27 00:03:18;;;;;;;49.97;40.25;;;;;;;;;;5062565;28;20404;-67
2021/07/27 00:05:44;;;;;;;43.85;39.05;;;;;;;;;;5054126;28;20035;-67
2021/07/27 00:08:10;;;;;;;43.28;37.03;;;;;;;;;;5055989;28;20178;-67
2021/07/27 00:10:37;;;;;;;49.55;40.80;;;;;;;;;;5048198;28;20120;-67
2021/07/27 00:13:04;;;;;;;47.20;39.13;;;;;;;;;;5059508;28;20558;-67
2021/07/27 00:15:31;;;;;;;53.20;43.53;;;;;;;;;;5053519;28;20108;-67
2021/07/27 00:17:57;;;;;;;51.20;41.42;;;;;;;;;;5057841;28;20033;-67
2021/07/27 00:20:23;;;;;;;59.63;44.97;;;;;;;;;;5049477;28;20124;-67
2021/07/27 00:22:50;;;;;;;54.33;42.28;;;;;;;;;;5063306;28;20028;-67
2021/07/27 00:25:16;;;;;;;62.55;46.25;;;;;;;;;;5052392;28;20544;-67
2021/07/27 00:27:42;;;;;;;52.92;42.83;;;;;;;;;;5059325;28;20036;-67
2021/07/27 00:30:09;;;;;;;63.13;45.85;;;;;;;;;;5052506;28;20091;-67
2021/07/27 00:32:36;;;;;;;58.50;44.90;;;;;;;;;;5061396;28;20079;-67
2021/07/27 00:35:04;;;;;;;52.58;41.92;;;;;;;;;;5047767;28;20036;-67
2021/07/27 00:37:32;;;;;;;51.72;41.67;;;;;;;;;;5057381;28;20073;-67
2021/07/27 00:39:58;;;;;;;51.45;42.67;;;;;;;;;;5055975;28;20419;-67
2021/07/27 00:42:26;;;;;;;60.67;45.40;;;;;;;;;;5066183;28;20043;-67
2021/07/27 00:44:53;;;;;;;48.83;42.88;;;;;;;;;;5062163;28;20131;-67
2021/07/27 00:47:19;;;;;;;50.63;42.13;;;;;;;;;;5054262;28;20067;-67
2021/07/27 00:49:45;;;;;;;51.95;42.53;;;;;;;;;;5063539;28;20128;-67
2021/07/27 00:52:12;;;;;;;53.35;43.85;;;;;;;;;;5056379;28;20052;-67
2021/07/27 00:54:38;;;;;;;52.72;42.30;;;;;;;;;;5057785;28;20129;-67
2021/07/27 00:57:05;;;;;;;58.53;46.72;;;;;;;;;;5054922;28;20524;-67
2021/07/27 00:59:31;;;;;;;56.65;43.72;;;;;;;;;;5062874;28;20067;-67
2021/07/27 01:01:57;;;;;;;60.05;46.35;;;;;;;;;;5054742;28;20045;-67
2021/07/27 01:04:24;;;;;;;61.15;48.15;;;;;;;;;;5062133;28;20117;-67
2021/07/27 01:06:51;;;;;;;71.10;50.08;;;;;;;;;;5058273;28;20029;-67
2021/07/27 01:09:17;;;;;;;60.05;46.75;;;;;;;;;;5062456;28;20048;-67
2021/07/27 01:11:44;;;;;;;60.22;47.33;;;;;;;;;;5053040;28;20061;-67
2021/07/27 01:14:10;;;;;;;64.90;48.13;;;;;;;;;;5060134;28;20047;-67
2021/07/27 01:16:37;;;;;;;70.80;50.70;;;;;;;;;;5052977;28;20594;-67
2021/07/27 01:43:41;;;;;;;58.67;44.20;;;;;;;;;;5053563;28;20511;-67
2021/07/27 01:46:11;;;;;;;53.50;43.08;;;;;;;;;;5060452;28;20470;-67
2021/07/27 01:48:37;;;;;;;55.40;42.05;;;;;;;;;;5053675;28;20056;-67
2021/07/27 01:51:06;;;;;;;55.50;40.97;;;;;;;;;;5062928;28;20362;-67
2021/07/27 01:53:36;;;;;;;55.83;42.42;;;;;;;;;;5054485;28;20478;-67
2021/07/27 01:56:02;;;;;;;49.90;38.83;;;;;;;;;;5060964;28;20124;-67
2021/07/27 01:58:29;;;;;;;51.63;40.60;;;;;;;;;;5055800;28;20048;-68
2021/07/27 02:00:55;;;;;;;51.42;41.20;;;;;;;;;;5060398;28;20051;-68
2021/07/27 02:03:21;;;;;;;52.92;40.83;;;;;;;;;;5050268;28;20036;-68
2021/07/27 02:05:47;;;;;;;63.92;44.17;;;;;;;;;;5061451;28;20069;-67
2021/07/27 02:08:13;;;;;;;70.20;46.50;;;;;;;;;;5058745;28;20408;-67
2021/07/27 02:10:42;;;;;;;61.28;44.38;;;;;;;;;;5057983;28;20044;-67
2021/07/27 02:13:24;;;;;;;56.92;41.75;;;;;;;;;;5059605;28;20051;-67
2021/07/27 02:15:50;;;;;;;56.28;41.15;;;;;;;;;;5056324;28;20504;-67
2021/07/27 02:18:16;;;;;;;52.85;40.17;;;;;;;;;;5056796;28;20342;-67
2021/07/27 02:20:47;;;;;;;57.88;41.40;;;;;;;;;;5057225;28;20048;-67
2021/07/27 02:23:14;;;;;;;60.05;41.90;;;;;;;;;;5060625;28;20049;-67
2021/07/27 02:25:40;;;;;;;51.50;39.47;;;;;;;;;;5058713;28;20036;-67
2021/07/27 02:28:11;;;;;;;59.38;40.63;;;;;;;;;;5060350;28;20040;-67
2021/07/27 02:30:40;;;;;;;52.65;39.72;;;;;;;;;;5054269;28;20068;-67
2021/07/27 02:33:07;;;;;;;59.90;38.80;;;;;;;;;;5064341;28;20399;-66
2021/07/27 02:35:33;;;;;;;46.10;35.30;;;;;;;;;;5051818;28;20152;-67
2021/07/27 02:38:00;;;;;;;49.53;37.47;;;;;;;;;;5061267;28;20032;-67
2021/07/27 02:40:27;;;;;;;52.90;37.92;;;;;;;;;;5050089;28;20128;-67
2021/07/27 02:42:53;;;;;;;56.78;38.50;;;;;;;;;;5061034;28;20072;-67
2021/07/27 02:45:25;;;;;;;50.72;37.05;;;;;;;;;;5052227;28;20044;-67
2021/07/27 02:47:52;;;;;;;46.55;34.78;;;;;;;;;;5056995;28;20456;-67
2021/07/27 02:50:18;;;;;;;43.75;32.25;;;;;;;;;;5057728;28;20114;-67
2021/07/27 02:52:44;;;;;;;42.70;32.80;;;;;;;;;;5062412;28;20463;-67
2021/07/27 02:55:11;;;;;;;43.15;30.70;;;;;;;;;;5053889;28;20135;-67
2021/07/27 02:57:38;;;;;;;33.97;26.23;;;;;;;;;;5058593;28;20033;-66
2021/07/27 03:00:05;;;;;;;32.25;25.52;;;;;;;;;;5060435;28;20117;-67
2021/07/27 03:02:31;;;;;;;35.63;26.70;;;;;;;;;;5051912;28;20181;-66
2021/07/27 03:04:57;;;;;;;31.17;24.02;;;;;;;;;;5062289;28;20119;-67
2021/07/27 03:07:32;;;;;;;27.70;23.50;;;;;;;;;;5052857;28;20028;-67
2021/07/27 03:10:17;;;;;;;28.95;23.83;;;;;;;;;;5059846;28;20059;-67
2021/07/27 03:12:47;;;;;;;30.65;23.92;;;;;;;;;;5054568;28;20108;-67
2021/07/27 03:15:14;;;;;;;27.98;22.70;;;;;;;;;;5062849;28;20040;-66
2021/07/27 03:17:40;;;;;;;26.85;22.02;;;;;;;;;;5050993;28;20033;-67
2021/07/27 03:20:10;;;;;;;28.77;21.55;;;;;;;;;;5058494;28;20037;-67
2021/07/27 03:22:36;;;;;;;26.67;22.25;;;;;;;;;;5055027;28;20377;-67
2021/07/27 03:25:02;;;;;;;23.88;21.27;;;;;;;;;;5059427;28;20081;-67
2021/07/27 03:27:29;;;;;;;24.83;21.55;;;;;;;;;;5056255;28;20503;-67
2021/07/27 03:29:55;;;;;;;25.67;22.08;;;;;;;;;;5059643;28;20127;-67
2021/07/27 03:32:21;;;;;;;28.88;22.13;;;;;;;;;;5051911;28;20103;-67
2021/07/27 03:34:47;;;;;;;26.95;22.20;;;;;;;;;;5059615;28;20056;-67
2021/07/27 03:37:14;;;;;;;27.15;22.80;;;;;;;;;;5052747;28;20037;-66
2021/07/27 03:39:40;;;;;;;27.83;21.85;;;;;;;;;;5055406;28;20135;-66
2021/07/27 03:42:06;;;;;;;27.20;22.63;;;;;;;;;;5051764;28;20101;-66
2021/07/27 03:44:32;;;;;;;26.33;22.90;;;;;;;;;;5058820;28;20045;-66
2021/07/27 03:46:59;;;;;;;26.98;22.60;;;;;;;;;;5060883;28;20044;-66
2021/07/27 03:49:26;;;;;;;30.08;24.20;;;;;;;;;;5052466;28;20052;-66
2021/07/27 03:51:53;;;;;;;33.45;24.90;;;;;;;;;;5060582;28;20045;-66
2021/07/27 03:54:19;;;;;;;32.08;24.50;;;;;;;;;;5052650;28;20075;-66
2021/07/27 03:56:45;;;;;;;29.45;24.80;;;;;;;;;;5058743;28;20504;-66
2021/07/27 03:59:14;;;;;;;28.08;22.98;;;;;;;;;;5051094;28;20082;-66
2021/07/27 04:01:41;;;;;;;33.28;25.63;;;;;;;;;;5060130;28;20082;-66
2021/07/27 04:04:08;;;;;;;27.48;22.65;;;;;;;;;;5055611;28;20052;-66
2021/07/27 04:06:34;;;;;;;27.85;23.77;;;;;;;;;;5054666;28;20548;-66
2021/07/27 04:09:00;;;;;;;30.83;24.15;;;;;;;;;;5054561;28;20349;-67
2021/07/27 04:11:26;;;;;;;32.75;26.83;;;;;;;;;;5063996;28;20124;-66
2021/07/27 04:13:53;;;;;;;28.20;23.52;;;;;;;;;;5049684;28;20045;-67
2021/07/27 04:16:19;;;;;;;33.63;24.88;;;;;;;;;;5057892;28;20048;-66
2021/07/27 04:18:48;;;;;;;31.05;25.23;;;;;;;;;;5048809;28;21104;-66
2021/07/27 04:21:14;;;;;;;30.98;25.35;;;;;;;;;;5060453;28;20037;-66
2021/07/27 04:23:41;;;;;;;37.40;26.92;;;;;;;;;;5050374;28;20037;-67
2021/07/27 04:26:07;;;;;;;27.40;23.58;;;;;;;;;;5059180;28;20109;-66
2021/07/27 04:28:35;;;;;;;29.88;25.38;;;;;;;;;;5062381;28;20503;-67
2021/07/27 04:31:01;;;;;;;33.00;25.70;;;;;;;;;;5047852;28;20040;-67
2021/07/27 04:33:27;;;;;;;35.92;26.50;;;;;;;;;;5060598;28;20039;-67
2021/07/27 04:35:54;;;;;;;33.08;25.38;;;;;;;;;;5055998;28;20052;-67
2021/07/27 04:38:23;;;;;;;40.13;28.30;;;;;;;;;;5056899;28;20044;-66
2021/07/27 04:40:53;;;;;;;40.85;30.13;;;;;;;;;;5047942;28;20064;-67
2021/07/27 04:43:19;;;;;;;35.15;28.55;;;;;;;;;;5061434;28;20043;-67
2021/07/27 04:45:45;;;;;;;38.13;30.02;;;;;;;;;;5052195;28;20119;-67
2021/07/27 04:48:11;;;;;;;38.97;29.63;;;;;;;;;;5060285;28;20111;-67
2021/07/27 04:50:38;;;;;;;36.00;30.00;;;;;;;;;;5046146;28;20045;-67
2021/07/27 04:53:06;;;;;;;39.47;31.95;;;;;;;;;;5056453;28;20078;-66
2021/07/27 04:55:32;;;;;;;44.28;33.28;;;;;;;;;;5048026;28;20044;-67
2021/07/27 04:57:58;;;;;;;44.40;34.17;;;;;;;;;;5060307;28;20052;-66
2021/07/27 05:00:25;;;;;;;42.20;32.15;;;;;;;;;;5053859;28;20461;-66
2021/07/27 05:02:51;;;;;;;45.40;34.80;;;;;;;;;;5060111;28;20057;-66
2021/07/27 05:05:17;;;;;;;43.40;33.63;;;;;;;;;;5056121;28;20048;-66
2021/07/27 05:07:45;;;;;;;40.40;32.80;;;;;;;;;;5060723;28;20349;-66
2021/07/27 05:10:11;;;;;;;45.92;33.83;;;;;;;;;;5060747;28;20437;-66
2021/07/27 05:12:37;;;;;;;46.17;33.83;;;;;;;;;;5054070;28;20489;-66
2021/07/27 05:15:07;;;;;;;44.50;32.80;;;;;;;;;;5057324;28;20492;-66
2021/07/27 05:17:33;;;;;;;44.63;32.08;;;;;;;;;;5047461;28;20152;-67
2021/07/27 05:19:59;;;;;;;42.88;32.38;;;;;;;;;;5057591;28;20090;-67
2021/07/27 05:22:25;;;;;;;51.25;35.05;;;;;;;;;;5053652;28;20083;-67
2021/07/27 05:24:52;;;;;;;50.70;35.97;;;;;;;;;;5058385;28;20523;-67
2021/07/27 05:27:21;;;;;;;51.17;36.47;;;;;;;;;;5055651;28;20102;-67
2021/07/27 05:29:48;;;;;;;54.17;38.50;;;;;;;;;;5059751;28;20507;-67
2021/07/27 05:32:14;;;;;;;54.80;38.85;;;;;;;;;;5051825;28;20136;-67
2021/07/27 05:34:40;;;;;;;51.70;37.17;;;;;;;;;;5061816;28;20492;-67
2021/07/27 05:37:08;;;;;;;55.08;38.17;;;;;;;;;;5050483;28;20088;-67
2021/07/27 05:39:34;;;;;;;57.08;39.20;;;;;;;;;;5061506;28;20623;-67
2021/07/27 05:42:01;;;;;;;58.05;40.92;;;;;;;;;;5051451;28;20149;-67
2021/07/27 05:44:27;;;;;;;57.65;39.17;;;;;;;;;;5063265;28;20045;-67
2021/07/27 05:46:54;;;;;;;58.55;42.75;;;;;;;;;;5055114;28;20484;-67
2021/07/27 05:49:21;;;;;;;56.08;41.17;;;;;;;;;;5059982;28;20710;-67
2021/07/27 05:51:48;;;;;;;56.70;40.42;;;;;;;;;;5060948;28;20075;-67
2021/07/27 05:54:14;;;;;;;54.45;39.10;;;;;;;;;;5058776;28;20066;-67
2021/07/27 05:56:40;;;;;;;56.22;41.47;;;;;;;;;;5066018;28;20124;-67
2021/07/27 05:59:09;;;;;;;54.30;41.50;;;;;;;;;;5053516;28;20032;-67
2021/07/27 06:01:35;;;;;;;53.70;40.75;;;;;;;;;;5060091;28;20045;-67
2021/07/27 06:04:01;;;;;;;56.63;41.95;;;;;;;;;;5055506;28;20048;-66
2021/07/27 06:06:31;;;;;;;56.10;41.97;;;;;;;;;;5066819;28;20044;-66
2021/07/27 06:09:01;;;;;;;62.58;44.25;;;;;;;;;;5055187;28;20048;-67
2021/07/27 06:11:27;;;;;;;57.63;43.13;;;;;;;;;;5063211;28;20161;-67
2021/07/27 06:13:53;;;;;;;58.25;42.65;;;;;;;;;;5060746;28;20076;-67
2021/07/27 06:16:20;;;;;;;57.97;40.60;;;;;;;;;;5044160;28;20044;-67
2021/07/27 06:18:46;;;;;;;59.00;42.70;;;;;;;;;;5057546;28;20464;-67
2021/07/27 06:21:12;;;;;;;59.90;42.90;;;;;;;;;;5063273;28;20115;-66
2021/07/27 06:23:38;;;;;;;61.67;44.35;;;;;;;;;;5057381;28;20135;-67
2021/07/27 06:26:05;;;;;;;57.35;44.53;;;;;;;;;;5062463;28;20032;-67
2021/07/27 06:28:31;;;;;;;60.60;46.30;;;;;;;;;;5057993;28;20395;-67
2021/07/27 06:30:58;;;;;;;64.50;47.72;;;;;;;;;;5061105;28;20480;-67
2021/07/27 06:33:24;;;;;;;65.43;48.72;;;;;;;;;;5059591;28;20098;-67
2021/07/27 06:35:59;;;;;;;63.95;47.45;;;;;;;;;;5057694;28;20044;-67
2021/07/27 06:38:25;;;;;;;66.13;48.72;;;;;;;;;;5062008;28;20446;-67
2021/07/27 06:40:52;;;;;;;68.00;49.83;;;;;;;;;;5056694;28;20489;-67
2021/07/27 06:43:18;;;;;;;61.60;46.83;;;;;;;;;;5059810;28;20041;-67
2021/07/27 06:45:51;;;;;;;66.55;47.97;;;;;;;;;;5058047;28;20480;-67
2021/07/27 06:48:17;;;;;;;64.25;48.10;;;;;;;;;;5062522;28;20126;-67
2021/07/27 06:50:43;;;;;;;64.30;48.10;;;;;;;;;;5055037;28;20036;-67
2021/07/27 06:53:10;;;;;;;63.63;47.00;;;;;;;;;;5061566;28;20045;-67
2021/07/27 06:55:36;;;;;;;64.43;49.05;;;;;;;;;;5059081;28;20079;-67
2021/07/27 06:58:02;;;;;;;60.55;47.13;;;;;;;;;;5063314;28;20052;-67
2021/07/27 07:00:28;;;;;;;60.95;46.58;;;;;;;;;;5056709;28;20511;-68
2021/07/27 07:02:54;;;;;;;61.22;46.92;;;;;;;;;;5062141;28;20363;-67
2021/07/27 07:05:20;;;;;;;57.55;45.00;;;;;;;;;;5053498;28;20044;-68
2021/07/27 07:07:47;;;;;;;60.45;46.17;;;;;;;;;;5055503;28;20456;-68
2021/07/27 07:10:13;;;;;;;51.08;42.63;;;;;;;;;;5052654;28;20097;-68
2021/07/27 07:12:39;;;;;;;50.72;41.05;;;;;;;;;;5058490;28;20041;-67
2021/07/27 07:15:05;;;;;;;51.72;43.90;;;;;;;;;;5056306;28;20139;-67
2021/07/27 07:17:31;;;;;;;51.63;43.38;;;;;;;;;;5059874;28;20376;-67
2021/07/27 07:19:57;;;;;;;56.40;44.75;;;;;;;;;;5060913;28;20048;-67
2021/07/27 07:22:24;;;;;;;52.75;41.70;;;;;;;;;;5055329;28;20033;-67
2021/07/27 07:24:51;;;;;;;54.95;44.45;;;;;;;;;;5061911;28;20109;-67
2021/07/27 07:27:18;;;;;;;50.28;41.80;;;;;;;;;;5058057;28;20047;-68
2021/07/27 07:29:44;;;;;;;46.90;41.75;;;;;;;;;;5056352;28;20049;-68
2021/07/27 07:32:10;;;;;;;51.55;43.22;;;;;;;;;;5055955;28;20055;-68
2021/07/27 07:34:36;;;;;;;50.10;43.55;;;;;;;;;;5061564;28;20048;-67
2021/07/27 07:37:05;;;;;;;54.53;42.15;;;;;;;;;;5053664;28;20101;-67
2021/07/27 07:39:31;;;;;;;48.63;41.00;;;;;;;;;;5061950;28;20090;-67
2021/07/27 07:42:02;;;;;;;51.42;43.35;;;;;;;;;;5053716;28;20286;-67
2021/07/27 07:44:29;;;;;;;50.67;43.72;;;;;;;;;;5057795;28;20398;-66
2021/07/27 07:46:55;;;;;;;49.28;42.10;;;;;;;;;;5050744;28;20629;-66
2021/07/27 07:49:21;;;;;;;47.15;40.25;;;;;;;;;;5059043;28;20543;-66
2021/07/27 07:51:49;;;;;;;45.75;39.80;;;;;;;;;;5054503;28;20079;-66
2021/07/27 07:54:17;;;;;;;46.45;40.10;;;;;;;;;;5059881;28;20052;-67
2021/07/27 07:56:46;;;;;;;43.47;38.83;;;;;;;;;;5054820;28;20489;-67
2021/07/27 07:59:13;;;;;;;42.97;37.88;;;;;;;;;;5057052;28;20044;-67
2021/07/27 08:01:45;;;;;;;42.63;36.03;;;;;;;;;;5060526;28;20044;-67
2021/07/27 08:04:12;;;;;;;43.40;36.63;;;;;;;;;;5051530;28;20072;-67
2021/07/27 08:06:38;;;;;;;42.67;38.05;;;;;;;;;;5061758;28;20059;-67
2021/07/27 08:09:05;;;;;;;42.60;38.05;;;;;;;;;;5053557;28;20098;-67
2021/07/27 08:11:31;;;;;;;43.63;37.75;;;;;;;;;;5065728;28;20441;-67
2021/07/27 08:13:58;;;;;;;40.13;35.72;;;;;;;;;;5051542;28;20043;-67
2021/07/27 08:16:25;;;;;;;39.05;34.30;;;;;;;;;;5060346;28;20079;-67
2021/07/27 08:18:51;;;;;;;40.00;35.65;;;;;;;;;;5053931;28;20051;-67
2021/07/27 08:21:17;;;;;;;43.30;37.35;;;;;;;;;;5056266;28;20067;-67
2021/07/27 08:23:45;;;;;;;47.03;36.78;;;;;;;;;;5048767;28;20049;-67
2021/07/27 08:26:11;;;;;;;40.22;35.92;;;;;;;;;;5058569;28;20147;-67
2021/07/27 08:28:38;;;;;;;45.35;37.00;;;;;;;;;;5050682;28;20123;-67
2021/07/27 08:31:04;;;;;;;38.90;34.75;;;;;;;;;;5056446;28;20128;-67
2021/07/27 08:33:30;;;;;;;36.67;33.00;;;;;;;;;;5052707;28;20068;-67
2021/07/27 08:35:57;;;;;;;35.65;31.58;;;;;;;;;;5059555;28;20481;-67
2021/07/27 08:38:23;;;;;;;36.10;32.22;;;;;;;;;;5055923;28;20501;-67
2021/07/27 08:40:50;;;;;;;34.00;30.30;;;;;;;;;;5057807;28;20083;-67
2021/07/27 08:43:17;;;;;;;33.35;29.80;;;;;;;;;;5054125;28;20047;-67
2021/07/27 08:45:44;;;;;;;34.30;29.98;;;;;;;;;;5049671;28;20132;-67
2021/07/27 08:48:10;;;;;;;34.67;30.35;;;;;;;;;;5054682;28;20481;-67
2021/07/27 08:50:36;;;;;;;32.72;29.48;;;;;;;;;;5052201;28;20041;-67
2021/07/27 08:53:02;;;;;;;34.40;30.90;;;;;;;;;;5060310;28;20872;-67
2021/07/27 08:55:29;;;;;;;32.65;29.50;;;;;;;;;;5051617;28;20401;-67
2021/07/27 08:57:56;;;;;;;36.65;33.03;;;;;;;;;;5056112;28;20052;-67
2021/07/27 09:00:26;;;;;;;36.17;32.67;;;;;;;;;;5050690;28;20123;-67
2021/07/27 09:02:52;;;;;;;33.40;30.10;;;;;;;;;;5060651;28;20492;-67
2021/07/27 09:05:19;;;;;;;35.17;31.77;;;;;;;;;;5057092;28;20044;-67
2021/07/27 09:07:45;;;;;;;31.42;28.13;;;;;;;;;;5064546;28;20040;-67
2021/07/27 09:10:12;;;;;;;30.45;27.35;;;;;;;;;;5053715;28;20044;-67
2021/07/27 09:12:38;;;;;;;28.08;25.15;;;;;;;;;;5059817;28;20408;-67
2021/07/27 09:15:05;;;;;;;28.00;25.25;;;;;;;;;;5057926;28;20539;-67
2021/07/27 09:17:32;;;;;;;24.65;22.13;;;;;;;;;;5060570;28;20036;-66
2021/07/27 09:19:58;;;;;;;22.15;20.08;;;;;;;;;;5054507;28;20489;-66
2021/07/27 09:22:24;;;;;;;22.92;20.80;;;;;;;;;;5057816;28;20675;-66
2021/07/27 09:24:51;;;;;;;20.88;18.98;;;;;;;;;;5061175;28;20052;-66
2021/07/27 09:27:27;;;;;;;19.95;18.05;;;;;;;;;;5052717;28;20051;-67
2021/07/27 09:29:53;;;;;;;20.05;18.20;;;;;;;;;;5062548;28;20055;-67
2021/07/27 09:32:20;;;;;;;17.55;16.05;;;;;;;;;;5055687;28;20047;-66
2021/07/27 09:34:47;;;;;;;18.83;16.98;;;;;;;;;;5059459;28;20242;-66
2021/07/27 09:37:14;;;;;;;17.00;15.40;;;;;;;;;;5054365;28;20083;-66
2021/07/27 09:39:40;;;;;;;17.98;16.27;;;;;;;;;;5063443;28;20104;-66
2021/07/27 09:42:08;;;;;;;24.38;16.73;;;;;;;;;;5052398;28;20087;-67
2021/07/27 09:44:36;;;;;;;17.95;16.10;;;;;;;;;;5062399;28;20540;-67
2021/07/27 09:47:02;;;;;;;20.05;15.48;;;;;;;;;;5050317;28;20028;-67
2021/07/27 09:49:29;;;;;;;17.50;15.77;;;;;;;;;;5038532;28;20466;-67
2021/07/27 09:51:58;;;;;;;15.45;14.00;;;;;;;;;;5054372;28;20044;-67
2021/07/27 09:54:25;;;;;;;15.60;14.05;;;;;;;;;;5059978;28;20056;-67
2021/07/27 09:56:52;;;;;;;16.48;14.82;;;;;;;;;;5058378;28;20033;-67
2021/07/27 09:59:19;;;;;;;16.95;14.32;;;;;;;;;;5057766;28;20039;-66
2021/07/27 10:01:51;;;;;;;16.10;14.55;;;;;;;;;;5051640;28;20057;-67
2021/07/27 10:04:25;;;;;;;18.23;16.42;;;;;;;;;;5060732;28;20044;-67
2021/07/27 10:06:51;;;;;;;16.30;14.80;;;;;;;;;;5057290;28;20109;-67
2021/07/27 10:09:27;;;;;;;17.58;15.77;;;;;;;;;;5063356;28;20265;-67
2021/07/27 10:12:04;;;;;;;15.80;14.20;;;;;;;;;;5058253;28;20490;-67
2021/07/27 10:14:37;;;;;;;15.98;14.50;;;;;;;;;;5058666;28;20048;-67
2021/07/27 10:17:04;;;;;;;14.57;13.18;;;;;;;;;;5057877;28;20048;-67
2021/07/27 10:19:37;;;;;;;15.50;14.00;;;;;;;;;;5053215;28;20037;-67
2021/07/27 10:22:04;;;;;;;16.08;14.38;;;;;;;;;;5058415;28;20115;-67
2021/07/27 10:24:37;;;;;;;15.85;14.43;;;;;;;;;;5051947;28;20481;-67
2021/07/27 10:27:07;;;;;;;17.02;15.43;;;;;;;;;;5054140;28;20110;-67
2021/07/27 10:29:33;;;;;;;16.63;15.00;;;;;;;;;;5050965;28;20040;-67
2021/07/27 10:31:59;;;;;;;15.80;14.30;;;;;;;;;;5058236;28;20060;-67
2021/07/27 10:34:33;;;;;;;16.30;14.70;;;;;;;;;;5053349;28;20072;-67
2021/07/27 10:37:15;;;;;;;15.80;14.40;;;;;;;;;;5060364;28;20098;-67
2021/07/27 10:39:48;;;;;;;16.88;15.13;;;;;;;;;;5050988;28;20045;-67
2021/07/27 10:42:17;;;;;;;17.63;15.95;;;;;;;;;;5063187;28;20408;-68
2021/07/27 10:44:44;;;;;;;16.65;15.15;;;;;;;;;;5056745;28;20376;-68
2021/07/27 10:47:17;;;;;;;18.52;16.63;;;;;;;;;;5060894;28;20052;-69
2021/07/27 10:49:44;;;;;;;16.95;15.20;;;;;;;;;;5051868;28;20037;-69
2021/07/27 10:52:11;;;;;;;18.42;16.67;;;;;;;;;;5060135;28;20036;-68
2021/07/27 10:54:38;;;;;;;17.13;15.57;;;;;;;;;;5052338;28;20040;-69
2021/07/27 10:57:06;;;;;;;16.00;14.40;;;;;;;;;;5062890;28;20511;-69
2021/07/27 10:59:36;;;;;;;15.52;14.15;;;;;;;;;;5055316;28;20455;-69
2021/07/27 11:02:10;;;;;;;15.38;13.88;;;;;;;;;;5065173;28;20136;-69
2021/07/27 11:04:36;;;;;;;15.75;13.65;;;;;;;;;;5057474;28;20451;-69
2021/07/27 11:07:15;;;;;;;14.38;13.02;;;;;;;;;;5061962;28;20091;-69
2021/07/27 11:09:48;;;;;;;16.10;14.40;;;;;;;;;;5055683;28;20043;-69
2021/07/27 11:12:25;;;;;;;15.98;14.57;;;;;;;;;;5044242;28;20113;-69
2021/07/27 11:14:51;;;;;;;16.00;14.38;;;;;;;;;;5056483;28;20037;-69
2021/07/27 11:17:23;;;;;;;14.02;12.63;;;;;;;;;;5059691;28;20052;-69
2021/07/27 11:19:52;;;;;;;16.90;13.77;;;;;;;;;;5051670;28;20445;-66
2021/07/27 11:22:18;;;;;;;15.20;13.85;;;;;;;;;;5061169;28;20170;-66
2021/07/27 11:24:45;;;;;;;16.48;14.75;;;;;;;;;;5056770;28;20065;-69
2021/07/27 11:27:15;;;;;;;16.45;14.93;;;;;;;;;;5059894;28;20334;-69
2021/07/27 11:29:42;;;;;;;15.65;14.15;;;;;;;;;;5055636;28;20045;-67
2021/07/27 11:32:14;;;;;;;15.32;13.88;;;;;;;;;;5051535;28;20397;-68
2021/07/27 11:34:40;;;;;;;16.63;15.02;;;;;;;;;;5055997;28;20096;-69
2021/07/27 11:37:06;;;;;;;16.88;15.30;;;;;;;;;;5054519;28;20090;-69
2021/07/27 11:39:39;;;;;;;17.40;15.18;;;;;;;;;;5063920;28;20153;-68
2021/07/27 11:42:05;;;;;;;16.60;15.05;;;;;;;;;;5051200;28;20048;-68
2021/07/27 11:44:31;;;;;;;15.95;14.60;;;;;;;;;;5058323;28;20147;-68
2021/07/27 11:46:57;;;;;;;14.85;13.40;;;;;;;;;;5049803;28;20037;-68
2021/07/27 11:49:25;;;;;;;16.92;15.23;;;;;;;;;;5040667;28;20041;-68
2021/07/27 11:52:05;;;;;;;16.08;14.57;;;;;;;;;;5055493;28;20404;-67
2021/07/27 11:54:31;;;;;;;14.95;13.45;;;;;;;;;;5059832;28;20377;-67
2021/07/27 11:56:58;;;;;;;12.70;11.45;;;;;;;;;;5051618;28;20449;-67
2021/07/27 11:59:25;;;;;;;13.55;12.25;;;;;;;;;;5056240;28;20033;-66
2021/07/27 12:01:51;;;;;;;14.63;13.13;;;;;;;;;;5053532;28;20079;-68
2021/07/27 12:04:19;;;;;;;13.60;12.32;;;;;;;;;;5059209;28;20081;-68
2021/07/27 12:06:46;;;;;;;18.58;12.70;;;;;;;;;;5053271;28;20431;-68
2021/07/27 12:09:12;;;;;;;14.75;13.35;;;;;;;;;;5054678;28;20033;-70
2021/07/27 12:11:39;;;;;;;14.52;13.13;;;;;;;;;;5056816;28;20356;-71
2021/07/27 12:14:05;;;;;;;12.40;11.20;;;;;;;;;;5054970;28;20044;-71
2021/07/27 12:16:31;;;;;;;13.27;11.98;;;;;;;;;;5061379;28;20108;-70
2021/07/27 12:18:57;;;;;;;14.18;12.77;;;;;;;;;;5055794;28;20041;-70
2021/07/27 12:21:23;;;;;;;16.38;13.90;;;;;;;;;;5058966;28;20041;-70
2021/07/27 12:23:49;;;;;;;14.23;12.82;;;;;;;;;;5049147;28;20511;-70
2021/07/27 12:26:15;;;;;;;14.27;12.48;;;;;;;;;;5060003;28;20067;-69
2021/07/27 12:28:42;;;;;;;13.15;11.90;;;;;;;;;;5056650;28;20036;-67
2021/07/27 12:31:08;;;;;;;11.85;10.80;;;;;;;;;;5061411;28;20653;-67
2021/07/27 12:33:34;;;;;;;11.68;10.68;;;;;;;;;;5050956;28;20040;-66
2021/07/27 12:36:01;;;;;;;12.40;11.20;;;;;;;;;;5059432;28;20436;-66
2021/07/27 12:38:27;;;;;;;11.57;10.40;;;;;;;;;;5058546;28;20037;-66
2021/07/27 12:40:53;;;;;;;13.77;12.35;;;;;;;;;;5060766;28;20056;-66
2021/07/27 12:43:19;;;;;;;11.38;10.30;;;;;;;;;;5059457;28;20480;-65
2021/07/27 12:45:46;;;;;;;12.48;10.88;;;;;;;;;;5064225;28;20048;-65
2021/07/27 12:48:12;;;;;;;12.48;11.27;;;;;;;;;;5060922;28;20116;-66
2021/07/27 12:50:38;;;;;;;12.48;11.25;;;;;;;;;;5061210;28;20047;-66
2021/07/27 12:53:04;;;;;;;13.35;12.15;;;;;;;;;;5061702;28;20047;-66
2021/07/27 12:55:30;;;;;;;13.18;11.50;;;;;;;;;;5054424;28;20047;-66
2021/07/27 12:57:56;;;;;;;12.38;11.13;;;;;;;;;;5061488;28;20398;-66
2021/07/27 13:00:23;;;;;;;11.77;10.68;;;;;;;;;;5058960;28;20127;-66
2021/07/27 13:02:49;;;;;;;11.98;10.88;;;;;;;;;;5063864;28;20053;-66
2021/07/27 13:05:15;;;;;;;12.55;11.27;;;;;;;;;;5054808;28;20049;-66
2021/07/27 13:07:41;;;;;;;13.82;12.23;;;;;;;;;;5061527;28;20033;-66
2021/07/27 13:10:08;;;;;;;14.18;12.57;;;;;;;;;;5058689;28;20052;-65
2021/07/27 13:12:34;;;;;;;16.35;14.85;;;;;;;;;;5067719;28;20051;-65
2021/07/27 13:15:00;;;;;;;16.73;15.07;;;;;;;;;;5054306;28;20078;-65
2021/07/27 13:17:26;;;;;;;14.82;12.13;;;;;;;;;;5062259;28;20061;-65
2021/07/27 13:19:53;;;;;;;13.45;12.05;;;;;;;;;;5059568;28;20416;-67
2021/07/27 13:22:19;;;;;;;12.73;11.43;;;;;;;;;;5066738;28;20037;-67
2021/07/27 13:24:45;;;;;;;14.52;12.95;;;;;;;;;;5058933;28;20128;-67
2021/07/27 13:27:11;;;;;;;14.18;12.77;;;;;;;;;;5058252;28;20393;-67
2021/07/27 13:29:38;;;;;;;15.20;13.70;;;;;;;;;;5060229;28;20036;-68
2021/07/27 13:32:08;;;;;;;14.85;13.35;;;;;;;;;;5059384;28;20108;-67
2021/07/27 13:34:34;;;;;;;15.32;13.43;;;;;;;;;;5060919;28;20131;-67
2021/07/27 13:37:01;;;;;;;14.25;12.90;;;;;;;;;;5054663;28;20037;-67
2021/07/27 13:39:27;;;;;;;16.23;14.63;;;;;;;;;;5061031;28;20123;-67
2021/07/27 13:41:54;;;;;;;18.02;16.33;;;;;;;;;;5058474;28;20033;-67
2021/07/27 13:44:20;;;;;;;20.10;17.85;;;;;;;;;;5064331;28;20048;-67
2021/07/27 13:46:46;;;;;;;20.75;18.30;;;;;;;;;;5055030;28;20048;-68
2021/07/27 13:49:13;;;;;;;22.38;20.42;;;;;;;;;;5065359;28;20045;-67
2021/07/27 13:51:39;;;;;;;24.13;21.85;;;;;;;;;;5057196;28;20041;-67
2021/07/27 13:54:05;;;;;;;24.58;21.52;;;;;;;;;;5068353;28;20044;-67
2021/07/27 13:56:32;;;;;;;27.42;24.90;;;;;;;;;;5053849;28;20048;-67
2021/07/27 13:58:58;;;;;;;26.73;24.23;;;;;;;;;;5058019;28;20055;-67
2021/07/27 14:01:27;;;;;;;31.63;28.38;;;;;;;;;;5061102;28;20052;-67
2021/07/27 14:03:53;;;;;;;34.08;29.17;;;;;;;;;;5061906;28;20132;-68
2021/07/27 14:06:19;;;;;;;31.90;28.80;;;;;;;;;;5059023;28;20485;-68
2021/07/27 14:08:45;;;;;;;33.25;30.08;;;;;;;;;;5060483;28;20497;-68
2021/07/27 14:11:11;;;;;;;34.22;30.92;;;;;;;;;;5052604;28;20471;-68
2021/07/27 14:13:37;;;;;;;33.17;29.98;;;;;;;;;;5055774;28;20045;-68
2021/07/27 14:16:05;;;;;;;31.65;28.40;;;;;;;;;;5061585;28;20041;-68
2021/07/27 14:18:31;;;;;;;34.70;31.05;;;;;;;;;;5055377;28;20037;-68
2021/07/27 14:20:57;;;;;;;34.08;30.63;;;;;;;;;;5045489;28;20045;-68
2021/07/27 14:23:23;;;;;;;31.20;28.33;;;;;;;;;;5053581;28;20032;-68
2021/07/27 14:25:49;;;;;;;32.83;29.63;;;;;;;;;;5057373;28;20106;-68
2021/07/27 14:28:15;;;;;;;34.88;31.50;;;;;;;;;;5057501;28;20174;-68
2021/07/27 14:30:41;;;;;;;35.10;31.63;;;;;;;;;;5057085;28;20040;-68
2021/07/27 14:33:10;;;;;;;29.58;26.85;;;;;;;;;;5035076;28;20110;-68
2021/07/27 14:35:37;;;;;;;25.95;23.45;;;;;;;;;;5057686;28;20098;-68
2021/07/27 14:38:03;;;;;;;25.48;23.08;;;;;;;;;;5036456;28;20120;-68
2021/07/27 14:40:30;;;;;;;20.27;18.25;;;;;;;;;;5058631;28;20123;-68